America Dourada, Brazil
Current Conditions -  °F | °C
As of 8:00 PM on Wednesday 26 Nov 2014 (Local Time) from SBPL Reporting Station
Clear Clear  
Wind Chill: 84°   Ceiling: Unl
Heat Index: 87°   Visibility: 6mi
Dew Point: 68°   Wind: 7mph
Humidity: 58%   Direction: 190°S
Pressure: 29.88"   Gusts: NA
Location:  11.46°S, 41.44°W
Report Text: SBPL 262300Z 19006KT CAVOK 29/20 Q1012
Loading
Personal Weather Stations






























Interactive Weather Map New forecast layout! Learn more

10-Day Weather Forecast

Advertisements
Track Severe Weather on mobile